Time;durP1;ratioP1;P1;durP2;ratioP2;P2;SDS_P1;SDS_P2;PMS_P1;PMS_P2;Temp;Humidity;BMP_temperature;BMP_pressure;BME280_temperature;BME280_humidity;BME280_pressure;Samples;Min_cycle;Max_cycle;Signal;HPM_P1;HPM_P2
2022/11/03 00:02:16;;;;;;;1.83;1.65;;;;;;;0.05;71.28;99043.63;5054089;28;20041;-68
2022/11/03 00:04:42;;;;;;;1.50;1.40;;;;;;;-0.04;71.77;99041.09;5014376;28;20490;-66
2022/11/03 00:07:08;;;;;;;1.65;1.50;;;;;;;-0.03;71.98;99041.91;5032170;28;20530;-67
2022/11/03 00:09:34;;;;;;;1.40;1.30;;;;;;;-0.07;71.62;99043.25;5022243;28;20319;-67
2022/11/03 00:12:00;;;;;;;1.60;1.27;;;;;;;-0.21;72.15;99052.66;5034558;28;20354;-65
2022/11/03 00:14:27;;;;;;;1.48;1.20;;;;;;;-0.29;72.95;99052.75;5052332;28;20044;-67
2022/11/03 00:16:53;;;;;;;1.05;1.05;;;;;;;-0.28;72.75;99059.56;5034337;28;20037;-68
2022/11/03 00:19:19;;;;;;;1.63;1.40;;;;;;;-0.29;73.07;99053.53;5017051;28;20040;-67
2022/11/03 00:21:45;;;;;;;1.30;1.20;;;;;;;-0.18;72.61;99056.72;5033945;28;20079;-67
2022/11/03 00:24:11;;;;;;;1.10;1.10;;;;;;;-0.19;73.04;99049.88;5018226;28;20117;-67
2022/11/03 00:26:37;;;;;;;1.27;1.20;;;;;;;-0.14;72.76;99050.19;5033987;28;20044;-67
2022/11/03 00:29:08;;;;;;;1.17;1.10;;;;;;;-0.14;72.47;99050.19;5049962;28;20490;-68
2022/11/03 00:31:36;;;;;;;1.55;1.40;;;;;;;-0.17;72.65;99053.13;5050761;28;20494;-66
2022/11/03 00:34:02;;;;;;;1.85;1.55;;;;;;;-0.25;72.52;99054.00;5051389;28;20086;-68
2022/11/03 00:36:42;;;;;;;1.40;1.30;;;;;;;-0.20;73.27;99048.28;5033705;28;20068;-68
2022/11/03 00:39:09;;;;;;;1.42;1.35;;;;;;;-0.21;72.51;99044.84;5050456;28;20041;-68
2022/11/03 00:41:35;;;;;;;1.55;1.38;;;;;;;-0.16;72.68;99049.53;5017218;28;20080;-68
2022/11/03 00:44:00;;;;;;;2.60;1.55;;;;;;;-0.16;72.60;99049.53;5033681;28;20041;-69
2022/11/03 00:46:26;;;;;;;1.60;1.50;;;;;;;-0.19;72.66;99053.28;5051525;28;20044;-68
2022/11/03 00:48:52;;;;;;;1.50;1.40;;;;;;;-0.18;72.73;99056.72;5051505;28;20052;-67
2022/11/03 00:51:23;;;;;;;1.58;1.38;;;;;;;-0.24;72.42;99060.81;5033482;28;20044;-69
2022/11/03 00:54:03;;;;;;;1.38;1.27;;;;;;;-0.28;72.47;99059.56;5033423;28;20041;-67
2022/11/03 00:56:31;;;;;;;1.80;1.67;;;;;;;-0.48;73.30;99067.03;5051154;28;20106;-67
2022/11/03 00:58:57;;;;;;;2.65;1.67;;;;;;;-0.59;73.30;99062.22;5049972;28;20032;-67
2022/11/03 01:01:25;;;;;;;2.15;1.95;;;;;;;-0.55;73.38;99063.50;5016869;28;20037;-67
2022/11/03 01:06:54;;;;;;;1.75;1.65;;;;;;;-0.45;73.41;99061.47;5051138;28;20110;-66
2022/11/03 01:09:38;;;;;;;2.15;1.55;;;;;;;-0.52;73.54;99057.97;5056092;28;20044;-67
2022/11/03 01:12:06;;;;;;;1.85;1.70;;;;;;;-0.44;73.15;99070.94;5020244;28;20040;-73
2022/11/03 01:14:45;;;;;;;1.60;1.50;;;;;;;-0.33;72.79;99080.91;5020076;28;20441;-69
2022/11/03 01:17:16;;;;;;;1.70;1.60;;;;;;;-0.40;72.63;99084.41;5071083;28;20133;-69
2022/11/03 01:19:42;;;;;;;2.85;1.98;;;;;;;-0.47;72.94;99074.69;5019511;28;20167;-71
2022/11/03 01:22:08;;;;;;;1.77;1.67;;;;;;;-0.39;72.74;99075.59;5070802;28;20048;-67
2022/11/03 01:24:34;;;;;;;2.60;1.70;;;;;;;-0.41;73.35;99077.56;5052921;28;20123;-67
2022/11/03 01:27:00;;;;;;;3.95;2.00;;;;;;;-0.36;73.00;99086.47;5053113;28;20040;-67
2022/11/03 01:29:25;;;;;;;2.10;1.90;;;;;;;-0.35;73.04;99084.69;5036252;28;20225;-67
2022/11/03 01:31:51;;;;;;;2.00;1.90;;;;;;;-0.34;72.97;99096.72;5071020;28;20040;-67
2022/11/03 01:34:19;;;;;;;2.25;1.95;;;;;;;-0.37;73.55;99084.06;5052953;28;20055;-65
2022/11/03 01:36:45;;;;;;;1.70;1.60;;;;;;;-0.42;73.72;99089.78;5055756;28;20049;-68
2022/11/03 01:39:17;;;;;;;1.70;1.45;;;;;;;-0.25;73.45;99088.66;5059527;28;20052;-68
2022/11/03 01:41:45;;;;;;;2.03;1.50;;;;;;;-0.21;73.20;99085.72;5026333;28;20048;-66
2022/11/03 01:44:10;;;;;;;1.52;1.42;;;;;;;-0.17;73.43;99092.22;5023057;28;20217;-67
2022/11/03 01:46:42;;;;;;;1.60;1.50;;;;;;;-0.08;72.61;99091.16;5022910;28;20417;-69
2022/11/03 01:49:14;;;;;;;2.67;1.80;;;;;;;-0.04;71.49;99095.81;5036094;28;20060;-69
2022/11/03 01:51:40;;;;;;;2.03;1.80;;;;;;;-0.21;71.07;99091.72;5019432;28;20041;-71
2022/11/03 01:54:09;;;;;;;1.90;1.75;;;;;;;-0.31;71.95;99091.97;5011337;28;20045;-69
2022/11/03 01:56:38;;;;;;;9.43;2.30;;;;;;;-0.36;72.38;99090.88;5059455;28;20056;-68
2022/11/03 01:59:04;;;;;;;1.95;1.67;;;;;;;-0.35;71.98;99097.72;5059316;28;20045;-67
2022/11/03 02:01:30;;;;;;;2.40;1.88;;;;;;;-0.46;72.10;99091.91;5042402;28;20398;-69
2022/11/03 02:04:00;;;;;;;2.63;1.70;;;;;;;-0.55;72.05;99082.53;5058816;28;20562;-67
2022/11/03 02:06:27;;;;;;;1.70;1.60;;;;;;;-0.55;72.59;99087.75;5077282;28;20412;-68
2022/11/03 02:09:00;;;;;;;1.60;1.50;;;;;;;-0.44;72.72;99081.34;5077306;28;20423;-68
2022/11/03 02:14:12;;;;;;;2.08;1.83;;;;;;;-0.59;72.99;99080.44;5062022;28;20117;-68
2022/11/03 02:16:39;;;;;;;3.13;1.63;;;;;;;-0.41;72.27;99086.19;5077074;28;20102;-67
2022/11/03 02:19:20;;;;;;;1.63;1.52;;;;;;;-0.36;72.24;99076.06;5058824;28;20072;-68
2022/11/03 02:22:07;;;;;;;3.42;1.75;;;;;;;-0.45;72.17;99087.50;5042440;28;20040;-69
2022/11/03 02:24:41;;;;;;;1.52;1.42;;;;;;;-0.51;72.11;99075.19;5042248;28;20110;-70
2022/11/03 02:27:07;;;;;;;1.35;1.30;;;;;;;-0.58;72.33;99089.91;5059461;28;20132;-69
2022/11/03 02:29:33;;;;;;;1.35;1.27;;;;;;;-0.66;72.50;99080.34;5077165;28;20511;-69
2022/11/03 02:32:12;;;;;;;2.53;1.63;;;;;;;-0.81;72.70;99082.88;5059353;28;20401;-69
2022/11/03 02:34:46;;;;;;;1.95;1.70;;;;;;;-0.74;72.54;99080.38;5042547;28;20040;-68
2022/11/03 02:37:19;;;;;;;1.98;1.55;;;;;;;-0.64;72.46;99077.56;5042556;28;20123;-69
2022/11/03 02:39:47;;;;;;;1.60;1.50;;;;;;;-0.71;72.88;99080.03;5059163;28;20045;-69
2022/11/03 02:42:14;;;;;;;1.77;1.65;;;;;;;-0.75;73.01;99065.75;5059314;28;20466;-70
2022/11/03 02:44:41;;;;;;;1.85;1.63;;;;;;;-0.66;72.69;99082.13;5059096;28;20036;-70
2022/11/03 02:47:09;;;;;;;2.00;1.70;;;;;;;-0.60;72.32;99076.22;5025698;28;20775;-71
2022/11/03 02:49:40;;;;;;;1.90;1.70;;;;;;;-0.54;72.31;99078.94;5054519;28;20093;-68
2022/11/03 02:52:26;;;;;;;1.58;1.48;;;;;;;-0.56;72.66;99078.34;5039423;28;20418;-68
2022/11/03 02:54:52;;;;;;;2.67;1.60;;;;;;;-0.60;72.98;99087.44;5073645;28;20033;-67
2022/11/03 02:57:21;;;;;;;1.50;1.40;;;;;;;-0.60;72.12;99086.66;5055730;28;20048;-68
2022/11/03 02:59:57;;;;;;;2.15;1.63;;;;;;;-0.62;72.66;99094.63;5055557;28;20040;-67
2022/11/03 03:02:33;;;;;;;2.22;1.90;;;;;;;-0.73;72.94;99093.22;5055978;28;20566;-67
2022/11/03 03:05:01;;;;;;;1.65;1.55;;;;;;;-0.75;73.02;99076.16;5022602;28;20041;-71
2022/11/03 03:07:37;;;;;;;2.38;1.80;;;;;;;-0.72;72.80;99092.25;5055862;28;20048;-71
2022/11/03 03:10:09;;;;;;;1.40;1.30;;;;;;;-0.84;73.00;99091.00;5055450;28;20044;-71
2022/11/03 03:12:37;;;;;;;1.08;1.08;;;;;;;-0.71;72.67;99093.03;5055879;28;20048;-67
2022/11/03 03:15:05;;;;;;;0.98;0.90;;;;;;;-0.72;72.49;99087.03;5048459;28;20474;-67
2022/11/03 03:17:53;;;;;;;1.60;1.30;;;;;;;-0.66;72.30;99088.16;5035820;28;20071;-70
2022/11/03 03:20:27;;;;;;;1.10;1.10;;;;;;;-0.71;72.41;99077.44;5028722;28;20052;-70
2022/11/03 03:23:04;;;;;;;1.83;1.30;;;;;;;-0.71;72.57;99082.63;5035910;28;20230;-69
2022/11/03 03:25:49;;;;;;;1.55;1.33;;;;;;;-0.79;72.36;99080.91;5015688;28;20067;-68
2022/11/03 03:28:22;;;;;;;1.80;1.70;;;;;;;-0.87;72.89;99091.34;4999573;28;20043;-68
2022/11/03 03:30:48;;;;;;;1.52;1.42;;;;;;;-0.76;73.04;99092.78;5026600;28;20135;-69
2022/11/03 03:33:14;;;;;;;1.90;1.70;;;;;;;-0.96;73.35;99094.97;5052275;28;20047;-69
2022/11/03 03:35:43;;;;;;;1.67;1.48;;;;;;;-1.07;74.00;99088.34;5035633;28;20072;-68
2022/11/03 03:38:12;;;;;;;1.65;1.23;;;;;;;-1.08;73.60;99055.53;5053499;28;20132;-66
2022/11/03 03:40:41;;;;;;;1.48;1.38;;;;;;;-0.89;73.83;99079.50;5051673;28;20041;-65
2022/11/03 03:43:09;;;;;;;1.95;1.33;;;;;;;-0.82;73.64;99075.25;5035258;28;20088;-67
2022/11/03 03:45:35;;;;;;;1.08;1.05;;;;;;;-0.83;72.81;99073.59;5056816;28;20207;-67
2022/11/03 03:48:01;;;;;;;1.10;1.10;;;;;;;-0.77;72.86;99080.72;5038581;28;20048;-66
2022/11/03 03:50:29;;;;;;;3.53;1.40;;;;;;;-0.80;73.10;99081.06;5038165;28;20090;-67
2022/11/03 03:53:05;;;;;;;1.40;1.30;;;;;;;-0.97;72.90;99069.94;5054945;28;20135;-66
2022/11/03 03:55:40;;;;;;;1.70;1.60;;;;;;;-0.83;73.09;99094.41;5038247;28;20116;-67
2022/11/03 03:58:07;;;;;;;1.30;1.20;;;;;;;-0.88;72.87;99087.16;5054798;28;20066;-67
2022/11/03 04:00:32;;;;;;;1.50;1.40;;;;;;;-0.89;72.98;99087.31;5054252;28;20071;-67
2022/11/03 04:02:58;;;;;;;2.15;1.33;;;;;;;-0.90;73.07;99085.69;5038391;28;20442;-68
2022/11/03 04:05:27;;;;;;;2.67;1.77;;;;;;;-1.04;73.52;99092.41;5054689;28;20445;-68
2022/11/03 04:07:53;;;;;;;2.47;2.10;;;;;;;-1.07;73.68;99092.75;5048017;28;20140;-69
2022/11/03 04:10:21;;;;;;;2.40;1.80;;;;;;;-1.04;72.80;99102.81;5034399;28;20127;-68
2022/11/03 04:23:47;;;;;;;2.53;2.00;;;;;;;-1.16;73.35;99095.38;5052651;28;20049;-68
2022/11/03 04:26:17;;;;;;;6.75;2.10;;;;;;;-1.17;73.73;99090.38;5035546;28;20029;-68
2022/11/03 04:28:43;;;;;;;;;;;;;;;-0.95;73.27;99102.59;5034677;28;20083;-66
2022/11/03 04:31:12;;;;;;;2.17;1.73;;;;;;;-0.99;72.55;99100.53;5030673;28;19971;-67
2022/11/03 04:33:40;;;;;;;1.65;1.55;;;;;;;-0.81;72.23;99095.88;5014688;28;20422;-67
2022/11/03 04:36:20;;;;;;;3.55;1.40;;;;;;;-0.82;72.12;99111.69;5022338;28;20123;-67
2022/11/03 04:38:47;;;;;;;1.70;1.60;;;;;;;-0.87;71.89;99108.78;5054343;28;20493;-66
2022/11/03 04:41:20;;;;;;;1.30;1.20;;;;;;;-0.98;72.33;99115.16;5004359;28;20489;-68
2022/11/03 04:43:45;;;;;;;1.30;1.20;;;;;;;-1.08;72.14;99111.97;5053867;28;20037;-68
2022/11/03 04:46:15;;;;;;;1.95;1.42;;;;;;;-1.14;73.04;99118.63;5053877;28;20029;-69
2022/11/03 04:48:42;;;;;;;2.22;1.65;;;;;;;-1.06;72.97;99117.78;5053982;28;20417;-70
2022/11/03 04:51:16;;;;;;;1.70;1.35;;;;;;;-1.07;72.93;99118.78;5053306;28;20107;-70
2022/11/03 04:53:49;;;;;;;1.60;1.50;;;;;;;-1.10;73.10;99114.72;5020934;28;20040;-70
2022/11/03 04:56:20;;;;;;;1.63;1.40;;;;;;;-1.07;72.83;99110.97;5020240;28;20409;-68
2022/11/03 04:58:47;;;;;;;3.00;1.40;;;;;;;-1.08;73.16;99111.97;5037101;28;20505;-69
2022/11/03 05:01:14;;;;;;;1.52;1.40;;;;;;;-0.96;72.48;99110.59;5071265;28;20040;-68
2022/11/03 05:03:41;;;;;;;1.65;1.55;;;;;;;-0.79;72.29;99114.75;5020712;28;20040;-73
2022/11/03 05:06:13;;;;;;;3.25;1.70;;;;;;;-0.61;71.27;99098.84;5063474;28;20124;-74
2022/11/03 05:08:40;;;;;;;1.90;1.70;;;;;;;-0.75;72.21;99100.41;5013985;28;20038;-71
2022/11/03 05:11:16;;;;;;;2.20;1.90;;;;;;;-0.98;72.72;99100.34;5004455;28;20406;-71
2022/11/03 05:13:42;;;;;;;1.50;1.40;;;;;;;-0.97;72.62;99103.75;5053365;28;20041;-71
2022/11/03 05:16:08;;;;;;;1.75;1.55;;;;;;;-1.11;72.99;99107.91;5070972;28;20409;-71
2022/11/03 05:18:38;;;;;;;2.20;2.00;;;;;;;-1.12;73.10;99102.84;5036828;28;20062;-73
2022/11/03 05:21:13;;;;;;;2.63;1.70;;;;;;;-0.98;72.86;99102.94;5070902;28;20037;-72
2022/11/03 05:23:42;;;;;;;2.72;1.67;;;;;;;-0.98;72.33;99108.16;5004092;28;20401;-72
2022/11/03 05:26:16;;;;;;;2.47;1.70;;;;;;;-1.03;72.70;99100.06;5036212;28;20113;-75
2022/11/03 05:28:46;;;;;;;2.75;1.83;;;;;;;-1.03;73.13;99109.63;5036767;28;20044;-72
2022/11/03 05:31:31;;;;;;;2.60;1.90;;;;;;;-1.02;72.57;99112.09;5036468;28;20051;-69
2022/11/03 05:34:02;;;;;;;1.70;1.60;;;;;;;-0.95;72.49;99102.59;5036296;28;20052;-73
2022/11/03 05:36:29;;;;;;;3.03;1.58;;;;;;;-0.81;72.08;99113.28;5053005;28;20048;-70
2022/11/03 05:38:59;;;;;;;2.65;2.10;;;;;;;-0.72;71.90;99110.47;5053275;28;20058;-72
2022/11/03 05:41:26;;;;;;;1.75;1.60;;;;;;;-0.64;71.73;99114.03;5019721;28;20048;-70
2022/11/03 05:44:01;;;;;;;1.60;1.50;;;;;;;-0.62;71.61;99115.44;5020394;28;20045;-70
2022/11/03 05:46:29;;;;;;;1.90;1.70;;;;;;;-0.67;71.00;99115.16;5053027;28;20044;-69
2022/11/03 05:48:55;;;;;;;1.90;1.70;;;;;;;-0.66;70.90;99121.97;5052760;28;20417;-71
2022/11/03 05:51:23;;;;;;;3.63;2.00;;;;;;;-0.73;71.29;99118.47;5053290;28;20413;-69
2022/11/03 05:53:55;;;;;;;2.00;1.80;;;;;;;-0.64;70.97;99125.25;5053086;28;20063;-72
2022/11/03 05:56:23;;;;;;;2.05;1.85;;;;;;;-0.51;70.59;99116.84;5070904;28;20091;-71
2022/11/03 05:58:50;;;;;;;1.88;1.70;;;;;;;-0.57;71.02;99123.56;5028669;28;20479;-71
2022/11/03 06:01:20;;;;;;;2.50;2.30;;;;;;;-0.50;70.79;99118.47;4988698;28;20499;-71
2022/11/03 06:03:46;;;;;;;3.25;2.10;;;;;;;-0.47;70.59;99123.34;5046225;28;20094;-72
2022/11/03 06:06:20;;;;;;;2.17;1.70;;;;;;;-0.48;70.79;99119.09;5034538;28;20048;-70
2022/11/03 06:08:46;;;;;;;3.28;2.15;;;;;;;-0.35;70.23;99126.38;5014879;28;20075;-71
2022/11/03 06:11:22;;;;;;;3.42;2.20;;;;;;;-0.28;70.04;99122.06;5048077;28;20041;-68
2022/11/03 06:13:47;;;;;;;5.53;2.10;;;;;;;-0.32;70.18;99134.63;5015366;28;20410;-71
2022/11/03 06:16:42;;;;;;;4.13;1.80;;;;;;;-0.20;69.93;99134.25;5047640;28;20041;-71
2022/11/03 06:19:32;;;;;;;3.75;1.83;;;;;;;-0.29;69.85;99131.69;5046215;28;20076;-69
2022/11/03 06:22:13;;;;;;;1.73;1.60;;;;;;;-0.58;70.77;99128.94;5028844;28;20033;-69
2022/11/03 06:24:39;;;;;;;2.08;1.80;;;;;;;-0.78;71.44;99131.16;5000531;28;20045;-70
2022/11/03 06:27:28;;;;;;;4.65;1.75;;;;;;;-0.72;71.08;99123.47;5050149;28;20384;-67
2022/11/03 06:30:01;;;;;;;1.83;1.70;;;;;;;-0.70;70.99;99129.34;5014901;28;20055;-71
2022/11/03 06:32:32;;;;;;;3.35;1.85;;;;;;;-0.54;70.72;99136.22;5033442;28;20052;-70
2022/11/03 06:34:58;;;;;;;1.70;1.60;;;;;;;-0.58;71.02;99128.94;5032882;28;20076;-70
2022/11/03 06:37:31;;;;;;;2.15;1.70;;;;;;;-0.66;70.90;99142.00;5049865;28;20045;-71
2022/11/03 06:40:00;;;;;;;2.15;1.92;;;;;;;-0.64;71.01;99140.06;5015882;28;20075;-75
2022/11/03 06:42:28;;;;;;;3.83;1.95;;;;;;;-0.66;71.15;99155.81;5015865;28;20052;-72
2022/11/03 06:44:54;;;;;;;2.80;1.52;;;;;;;-0.62;71.61;99156.28;4999485;28;20501;-72
2022/11/03 06:47:25;;;;;;;1.77;1.60;;;;;;;-0.59;71.04;99151.56;5016417;28;20099;-71
2022/11/03 06:49:53;;;;;;;3.28;1.80;;;;;;;-0.61;71.06;99143.13;5014165;28;20307;-71
2022/11/03 06:52:28;;;;;;;2.67;2.00;;;;;;;-0.52;71.15;99143.88;5050521;28;20064;-72
2022/11/03 06:55:12;;;;;;;1.98;1.73;;;;;;;-0.58;71.00;99147.19;5035674;28;20524;-72
2022/11/03 06:57:41;;;;;;;2.85;1.90;;;;;;;-0.48;70.73;99152.97;5035366;28;20505;-71
2022/11/03 07:00:28;;;;;;;5.93;1.75;;;;;;;-0.57;70.79;99133.97;5052474;28;20037;-72
2022/11/03 07:03:32;;;;;;;1.73;1.40;;;;;;;-0.42;70.17;99146.25;5018548;28;20044;-72
2022/11/03 07:06:14;;;;;;;1.60;1.50;;;;;;;-0.41;70.62;99142.66;5016348;28;20060;-72
2022/11/03 07:08:43;;;;;;;4.03;1.83;;;;;;;-0.44;70.75;99151.66;5018569;28;20052;-72
2022/11/03 07:11:21;;;;;;;1.70;1.60;;;;;;;-0.29;70.66;99144.72;5034751;28;20033;-72
2022/11/03 07:13:50;;;;;;;2.67;2.10;;;;;;;-0.30;69.75;99156.09;5018216;28;20048;-71
2022/11/03 07:16:58;;;;;;;2.00;1.80;;;;;;;-0.45;69.84;99150.00;5018246;28;20037;-71
2022/11/03 07:19:38;;;;;;;1.60;1.50;;;;;;;-0.44;69.78;99138.63;5018943;28;20080;-71
2022/11/03 07:22:09;;;;;;;1.80;1.70;;;;;;;-0.42;69.86;99147.06;5034501;28;20041;-72
2022/11/03 07:24:39;;;;;;;2.55;1.80;;;;;;;-0.35;69.65;99142.00;5017942;28;20041;-72
2022/11/03 07:27:30;;;;;;;2.00;1.80;;;;;;;-0.29;70.02;99142.09;5017830;28;20037;-71
2022/11/03 07:29:56;;;;;;;;;;;;;;;-0.09;69.73;99145.06;5017728;28;20045;-71
2022/11/03 07:32:25;;;;;;;3.95;1.83;;;;;;;-0.24;69.17;99152.00;5052362;28;19921;-71
2022/11/03 07:34:52;;;;;;;2.72;1.70;;;;;;;-0.28;69.56;99153.34;5017865;28;20118;-72
2022/11/03 07:37:23;;;;;;;2.75;1.60;;;;;;;-0.13;69.60;99148.19;5017580;28;20057;-71
2022/11/03 07:39:50;;;;;;;1.80;1.70;;;;;;;-0.12;70.07;99152.41;5017635;28;20069;-72
2022/11/03 07:42:21;;;;;;;1.70;1.48;;;;;;;-0.09;69.90;99152.88;5052573;28;20044;-72
2022/11/03 07:44:47;;;;;;;2.60;2.22;;;;;;;0.06;69.18;99157.31;5033361;28;20068;-73
2022/11/03 07:47:18;;;;;;;2.30;2.10;;;;;;;0.02;69.06;99156.03;5017146;28;20498;-72
2022/11/03 07:49:46;;;;;;;2.50;2.15;;;;;;;0.07;69.05;99161.56;5000614;28;20541;-73
2022/11/03 07:52:14;;;;;;;4.63;2.30;;;;;;;0.14;69.10;99157.25;5015021;28;20075;-73
2022/11/03 07:54:41;;;;;;;4.60;2.50;;;;;;;0.12;68.76;99154.84;5049032;28;20041;-72
2022/11/03 07:57:29;;;;;;;2.67;2.00;;;;;;;0.31;68.16;99153.53;5014860;28;20049;-70
2022/11/03 08:00:08;;;;;;;1.80;1.60;;;;;;;0.21;67.76;99166.81;5048324;28;20501;-70
2022/11/03 08:02:59;;;;;;;2.47;1.60;;;;;;;0.03;68.66;99145.47;5016110;28;20079;-70
2022/11/03 08:05:25;;;;;;;2.47;1.77;;;;;;;0.02;68.65;99154.25;5033843;28;20516;-70
2022/11/03 08:07:52;;;;;;;2.25;1.88;;;;;;;0.03;68.36;99155.88;5033583;28;20521;-71
2022/11/03 08:10:20;;;;;;;5.10;2.08;;;;;;;-0.01;68.56;99158.00;5031795;28;20037;-70
2022/11/03 08:12:45;;;;;;;3.72;1.88;;;;;;;0.00;68.74;99156.25;5016198;28;20033;-70
2022/11/03 08:15:11;;;;;;;3.85;2.20;;;;;;;-0.04;69.13;99162.75;5031588;28;20043;-69
2022/11/03 08:17:37;;;;;;;3.65;2.60;;;;;;;-0.09;68.94;99157.25;5032202;28;20040;-73
2022/11/03 08:20:03;;;;;;;3.60;2.22;;;;;;;-0.03;69.15;99149.56;5030912;28;20052;-75
2022/11/03 08:22:29;;;;;;;9.27;4.40;;;;;;;0.06;69.51;99145.13;5050577;28;20040;-74
2022/11/03 08:24:54;;;;;;;4.30;1.90;;;;;;;0.15;68.92;99149.28;5032350;28;20411;-72
2022/11/03 08:27:20;;;;;;;2.15;1.95;;;;;;;0.07;68.52;99154.53;5014791;28;20090;-65
2022/11/03 08:29:46;;;;;;;1.83;1.73;;;;;;;0.06;68.92;99150.31;5049610;28;20052;-70
2022/11/03 08:32:12;;;;;;;2.45;1.80;;;;;;;0.12;69.01;99151.38;5046555;28;20092;-72
2022/11/03 08:34:38;;;;;;;3.67;1.98;;;;;;;0.29;68.65;99144.25;5029916;28;20573;-64
2022/11/03 08:37:04;;;;;;;3.17;1.80;;;;;;;0.40;68.32;99149.84;5028079;28;20044;-66
2022/11/03 08:39:30;;;;;;;2.25;1.80;;;;;;;0.16;68.32;99150.88;5045313;28;20136;-68
2022/11/03 08:41:55;;;;;;;2.45;2.00;;;;;;;0.27;67.77;99144.44;5029901;28;20079;-69
2022/11/03 08:44:21;;;;;;;2.00;1.85;;;;;;;0.39;68.22;99148.25;5028601;28;20076;-69
2022/11/03 08:46:47;;;;;;;1.65;1.55;;;;;;;0.17;68.22;99146.47;5012802;28;20105;-69
2022/11/03 08:49:12;;;;;;;3.95;2.20;;;;;;;0.18;67.94;99141.09;5046920;28;20103;-69
2022/11/03 08:51:38;;;;;;;3.97;1.70;;;;;;;0.36;68.22;99140.78;5029954;28;20053;-69
2022/11/03 08:54:04;;;;;;;2.35;1.88;;;;;;;0.25;67.88;99143.81;5048594;28;20069;-69
2022/11/03 08:56:29;;;;;;;3.35;1.77;;;;;;;0.19;67.94;99136.69;5011513;28;20052;-69
2022/11/03 08:58:55;;;;;;;2.97;1.83;;;;;;;0.39;68.02;99137.81;5047110;28;20052;-70
2022/11/03 09:01:20;;;;;;;1.92;1.73;;;;;;;0.18;67.89;99145.50;5046839;28;20043;-70
2022/11/03 09:03:46;;;;;;;2.10;1.50;;;;;;;0.35;67.67;99143.53;5012537;28;20555;-70
2022/11/03 09:06:12;;;;;;;2.70;1.60;;;;;;;0.42;67.65;99132.22;5049018;28;20037;-69
2022/11/03 09:08:37;;;;;;;1.63;1.52;;;;;;;0.41;67.09;99137.63;5047952;28;20098;-68
2022/11/03 09:11:03;;;;;;;1.95;1.52;;;;;;;0.50;67.36;99131.34;5047692;28;20041;-69
2022/11/03 09:13:29;;;;;;;2.75;1.73;;;;;;;0.50;66.69;99135.75;5031371;28;20392;-72
2022/11/03 09:15:55;;;;;;;2.20;2.00;;;;;;;0.72;66.57;99137.47;5012709;28;20478;-72
2022/11/03 09:18:21;;;;;;;1.92;1.58;;;;;;;0.80;65.65;99134.78;4999084;28;20072;-72
2022/11/03 09:20:47;;;;;;;2.22;1.92;;;;;;;0.68;66.46;99137.03;5031467;28;20555;-71
2022/11/03 09:23:12;;;;;;;6.35;3.55;;;;;;;0.75;67.90;99137.09;5033501;28;20056;-69
2022/11/03 09:25:38;;;;;;;6.28;3.70;;;;;;;0.74;67.03;99130.28;5031498;28;20106;-69
2022/11/03 09:28:04;;;;;;;2.40;2.20;;;;;;;0.89;66.43;99132.88;5030797;28;20182;-70
2022/11/03 09:30:29;;;;;;;3.80;2.30;;;;;;;1.05;66.45;99142.31;5030028;28;20075;-69
2022/11/03 09:32:55;;;;;;;2.83;2.13;;;;;;;0.90;65.71;99147.53;5048624;28;20060;-73
2022/11/03 09:35:21;;;;;;;2.38;2.17;;;;;;;0.75;66.32;99146.75;5042047;28;20093;-70
2022/11/03 09:37:47;;;;;;;2.85;2.65;;;;;;;0.53;67.41;99141.44;5068213;28;20053;-66
2022/11/03 09:40:14;;;;;;;3.45;2.85;;;;;;;0.60;66.96;99141.53;5067782;28;20387;-68
2022/11/03 09:42:40;;;;;;;3.78;2.28;;;;;;;0.68;67.37;99142.25;5048559;28;20041;-71
2022/11/03 09:45:07;;;;;;;3.58;2.00;;;;;;;0.62;67.08;99126.50;5048753;28;20051;-74
2022/11/03 09:47:36;;;;;;;3.13;2.10;;;;;;;0.63;66.95;99143.75;5049502;28;20076;-73
2022/11/03 09:50:01;;;;;;;4.65;1.98;;;;;;;0.60;67.44;99147.53;5051822;28;20051;-73
2022/11/03 09:52:30;;;;;;;4.20;1.98;;;;;;;0.56;66.87;99141.06;5052900;28;20136;-73
2022/11/03 09:54:56;;;;;;;2.90;2.33;;;;;;;0.58;67.12;99143.47;5035402;28;20036;-71
2022/11/03 09:57:24;;;;;;;2.60;2.20;;;;;;;0.54;67.44;99135.22;5068309;28;20053;-71
2022/11/03 09:59:50;;;;;;;4.97;2.92;;;;;;;0.78;67.04;99141.16;5056414;28;20071;-72
2022/11/03 10:02:27;;;;;;;9.82;2.60;;;;;;;0.72;67.16;99142.69;5055589;28;20190;-72
2022/11/03 10:04:55;;;;;;;4.75;2.40;;;;;;;0.67;66.69;99145.81;5054617;28;20512;-71
2022/11/03 10:07:21;;;;;;;4.28;2.67;;;;;;;0.59;67.85;99143.31;5072072;28;20083;-69
2022/11/03 10:09:49;;;;;;;6.13;2.63;;;;;;;0.56;67.79;99145.44;5055467;28;20064;-75
2022/11/03 10:12:16;;;;;;;4.63;2.92;;;;;;;0.39;67.73;99153.44;5021902;28;20037;-72
2022/11/03 10:14:43;;;;;;;5.72;3.00;;;;;;;0.44;68.01;99143.31;5055296;28;20119;-74
2022/11/03 10:17:14;;;;;;;2.83;2.50;;;;;;;0.49;68.06;99139.34;5006521;28;20040;-77
2022/11/03 10:19:40;;;;;;;3.05;2.50;;;;;;;0.52;67.76;99136.38;5038328;28;20075;-74
2022/11/03 10:22:06;;;;;;;3.13;2.70;;;;;;;0.44;68.32;99139.88;5052636;28;20584;-76
2022/11/03 10:24:32;;;;;;;3.75;3.10;;;;;;;0.56;67.77;99137.63;5054162;28;20037;-73
2022/11/03 10:26:58;;;;;;;5.40;3.70;;;;;;;0.64;68.21;99142.75;5036982;28;20045;-74
2022/11/03 10:29:26;;;;;;;3.85;3.22;;;;;;;0.67;68.25;99127.56;5053956;28;20122;-73
2022/11/03 10:31:54;;;;;;;5.35;3.20;;;;;;;0.42;69.34;99134.84;5020887;28;20064;-70
2022/11/03 10:34:38;;;;;;;4.88;3.20;;;;;;;0.48;69.26;99138.53;5065590;28;20055;-72
2022/11/03 10:37:19;;;;;;;4.25;3.22;;;;;;;0.50;68.95;99138.34;5026338;28;20048;-70
2022/11/03 10:39:46;;;;;;;5.45;3.38;;;;;;;0.42;69.18;99134.03;5032673;28;20476;-70
2022/11/03 10:42:17;;;;;;;3.88;2.63;;;;;;;0.59;69.00;99132.06;5018898;28;20037;-71
2022/11/03 10:44:42;;;;;;;4.85;3.13;;;;;;;0.68;68.39;99131.81;5032951;28;20037;-69
2022/11/03 10:47:21;;;;;;;5.95;4.10;;;;;;;0.72;68.72;99140.06;5032400;28;20125;-70
2022/11/03 10:49:47;;;;;;;3.47;3.13;;;;;;;0.61;68.35;99130.88;5020095;28;20124;-69
2022/11/03 10:52:21;;;;;;;4.30;3.63;;;;;;;0.65;68.45;99136.59;5052370;28;20561;-69
2022/11/03 10:54:49;;;;;;;4.55;3.63;;;;;;;0.55;69.65;99141.22;5053065;28;20101;-70
2022/11/03 10:57:15;;;;;;;6.57;3.83;;;;;;;0.48;69.54;99135.94;5048072;28;20096;-71
2022/11/03 10:59:43;;;;;;;6.15;3.67;;;;;;;0.31;69.83;99135.28;5051637;28;20485;-70
2022/11/03 11:02:16;;;;;;;5.53;3.92;;;;;;;0.24;70.45;99139.59;5018022;28;20105;-71
2022/11/03 11:04:41;;;;;;;5.75;4.00;;;;;;;0.40;69.25;99134.19;5016989;28;20037;-71
2022/11/03 11:07:25;;;;;;;8.02;4.55;;;;;;;0.33;70.15;99133.31;5032094;28;20052;-69
2022/11/03 11:09:52;;;;;;;6.50;4.15;;;;;;;0.43;69.65;99131.25;5000978;28;20135;-71
2022/11/03 11:12:25;;;;;;;8.55;4.38;;;;;;;0.47;68.92;99136.91;5037891;28;20107;-70
2022/11/03 11:14:57;;;;;;;8.40;4.88;;;;;;;0.44;69.54;99138.09;4997921;28;20117;-72
2022/11/03 11:17:44;;;;;;;8.32;4.88;;;;;;;0.45;70.57;99142.31;5035319;28;20481;-71
2022/11/03 11:20:20;;;;;;;9.65;5.07;;;;;;;0.53;69.24;99130.16;5052962;28;20063;-71
2022/11/03 11:22:46;;;;;;;6.88;4.43;;;;;;;0.66;69.18;99139.00;5033753;28;20090;-71
2022/11/03 11:25:12;;;;;;;7.57;4.47;;;;;;;0.60;69.26;99128.47;5017785;28;20545;-69
2022/11/03 11:27:37;;;;;;;8.27;5.15;;;;;;;0.38;70.11;99144.03;5051101;28;20496;-70
2022/11/03 11:30:06;;;;;;;9.55;5.15;;;;;;;0.33;69.83;99138.53;5032085;28;20044;-73
2022/11/03 11:32:41;;;;;;;7.57;4.60;;;;;;;0.33;70.10;99130.69;5030318;28;20037;-73
2022/11/03 11:35:08;;;;;;;6.80;4.97;;;;;;;0.35;70.10;99133.91;5048362;28;20047;-72
2022/11/03 11:37:36;;;;;;;6.32;4.60;;;;;;;0.29;70.44;99131.22;5030013;28;20459;-72
2022/11/03 11:40:24;;;;;;;14.18;4.78;;;;;;;0.47;69.78;99128.28;5015647;28;20119;-71
2022/11/03 11:43:05;;;;;;;10.43;5.55;;;;;;;0.51;69.44;99122.53;5013937;28;20147;-72
2022/11/03 11:46:08;;;;;;;10.88;5.47;;;;;;;0.42;69.40;99127.03;5030447;28;20039;-71
2022/11/03 11:48:35;;;;;;;8.52;5.40;;;;;;;0.40;70.11;99131.59;5032243;28;20049;-71
2022/11/03 11:51:02;;;;;;;6.40;4.57;;;;;;;0.39;69.87;99131.78;4997376;28;20044;-72
2022/11/03 11:53:41;;;;;;;8.10;4.88;;;;;;;0.18;70.25;99129.88;5047737;28;20139;-72
2022/11/03 11:56:12;;;;;;;14.45;5.72;;;;;;;0.13;70.93;99126.97;5014107;28;20122;-71
2022/11/03 11:58:42;;;;;;;9.85;4.97;;;;;;;0.13;70.74;99134.78;5032412;28;20056;-70
2022/11/03 12:01:27;;;;;;;;;;;;;;;0.31;70.55;99126.63;5030666;28;20175;-72
2022/11/03 12:03:55;;;;;;;8.27;4.97;;;;;;;0.27;69.95;99128.81;5031407;28;20029;-71
2022/11/03 12:06:32;;;;;;;9.57;5.63;;;;;;;0.32;69.96;99134.28;5029422;28;20040;-72
2022/11/03 12:09:16;;;;;;;8.82;5.10;;;;;;;0.42;69.69;99134.84;5031709;28;20048;-71